Time;durP1;ratioP1;P1;durP2;ratioP2;P2;SDS_P1;SDS_P2;PMS_P1;PMS_P2;Temp;Humidity;BMP_temperature;BMP_pressure;BME280_temperature;BME280_humidity;BME280_pressure;Samples;Min_cycle;Max_cycle;Signal;HPM_P1;HPM_P2
2023/04/30 00:00:47;;;;;;;8.80;3.03;;;;;;;-146.25;100.00;52266.81;2079417;28;37535;-66
2023/04/30 00:01:48;;;;;;;17.08;3.38;;;;;;;-146.25;100.00;52307.38;2078762;28;34505;-68
2023/04/30 00:02:50;;;;;;;9.88;3.00;;;;;;;-146.25;100.00;52307.38;2078510;28;37317;-66
2023/04/30 00:03:52;;;;;;;9.20;3.15;;;;;;;-146.25;100.00;52270.88;2079593;28;32882;-68
2023/04/30 00:04:54;;;;;;;18.65;3.22;;;;;;;-146.25;100.00;52291.16;2079371;28;33495;-66
2023/04/30 00:05:56;;;;;;;9.18;2.88;;;;;;;-146.25;100.00;52319.53;2078738;28;36223;-66
2023/04/30 00:06:57;;;;;;;5.90;3.15;;;;;;;-146.25;100.00;52281.00;2078602;28;36770;-66
2023/04/30 00:07:59;;;;;;;8.20;3.17;;;;;;;-146.25;100.00;52256.69;2079543;28;31247;-66
2023/04/30 00:09:01;;;;;;;11.07;3.33;;;;;;;-146.25;100.00;52307.38;2086708;28;37154;-67
2023/04/30 00:10:04;;;;;;;11.05;3.78;;;;;;;-146.25;100.00;52293.19;2087450;28;20053;-66
2023/04/30 00:11:05;;;;;;;7.82;3.22;;;;;;;-146.25;100.00;52287.09;2079293;28;29680;-66
2023/04/30 00:12:07;;;;;;;10.93;3.03;;;;;;;-146.25;100.00;52283.03;2079732;28;27760;-66
2023/04/30 00:13:09;;;;;;;11.23;3.63;;;;;;;-146.25;100.00;52315.47;2087840;28;20042;-67
2023/04/30 00:14:11;;;;;;;10.18;3.03;;;;;;;-146.25;100.00;52287.09;2086740;28;38235;-67
2023/04/30 00:15:12;;;;;;;10.77;2.90;;;;;;;-146.25;100.00;52246.53;2079511;28;34060;-66
2023/04/30 00:16:14;;;;;;;6.50;2.53;;;;;;;-146.25;100.00;52256.69;2079529;28;33022;-66
2023/04/30 00:17:16;;;;;;;7.10;2.85;;;;;;;-146.25;100.00;52266.81;2079696;28;37332;-66
2023/04/30 00:18:18;;;;;;;8.70;2.88;;;;;;;-146.25;100.00;52285.06;2088100;28;34646;-66
2023/04/30 00:19:24;;;;;;;9.35;3.22;;;;;;;-146.25;100.00;52311.44;2088303;28;35012;-66
2023/04/30 00:20:26;;;;;;;8.45;3.35;;;;;;;-146.25;100.00;52291.16;2080404;28;36813;-65
2023/04/30 00:21:31;;;;;;;9.18;3.05;;;;;;;-146.25;100.00;52307.38;2081478;28;20042;-66
2023/04/30 00:22:32;;;;;;;7.82;2.90;;;;;;;-146.25;100.00;52307.38;2080336;28;36069;-68
2023/04/30 00:23:34;;;;;;;8.35;3.45;;;;;;;-146.25;100.00;52287.09;2081339;28;20942;-65
2023/04/30 00:24:36;;;;;;;9.32;3.22;;;;;;;-146.25;100.00;52307.38;2080587;28;34710;-66
2023/04/30 00:25:40;;;;;;;7.22;3.10;;;;;;;-146.25;100.00;52293.19;2080830;28;32310;-66
2023/04/30 00:26:42;;;;;;;7.85;3.40;;;;;;;-146.25;100.00;52281.00;2081219;28;22985;-66
2023/04/30 00:27:44;;;;;;;9.57;3.65;;;;;;;-146.25;100.00;52293.19;2081312;28;20801;-65
2023/04/30 00:28:46;;;;;;;13.20;3.00;;;;;;;-146.25;100.00;52285.06;2081139;28;20819;-66
2023/04/30 00:29:48;;;;;;;12.98;3.83;;;;;;;-146.25;100.00;52321.56;2082031;28;21008;-66
2023/04/30 00:30:50;;;;;;;16.05;4.00;;;;;;;-146.25;100.00;52268.84;2088133;28;32482;-66
2023/04/30 00:31:51;;;;;;;10.75;4.07;;;;;;;-146.25;100.00;52291.16;2080548;28;20038;-66
2023/04/30 00:32:53;;;;;;;9.13;3.65;;;;;;;-146.25;100.00;52325.63;2080513;28;27945;-66
2023/04/30 00:33:55;;;;;;;12.85;3.95;;;;;;;-146.25;100.00;52291.16;2079684;28;33276;-66
2023/04/30 00:34:57;;;;;;;11.80;3.97;;;;;;;-146.25;100.00;52283.03;2080993;28;20078;-66
2023/04/30 00:35:59;;;;;;;8.90;3.88;;;;;;;-146.25;100.00;52274.94;2079972;28;32265;-66
2023/04/30 00:37:00;;;;;;;14.43;4.05;;;;;;;-146.25;100.00;52266.81;2072103;28;20043;-66
2023/04/30 00:38:02;;;;;;;12.90;3.85;;;;;;;-146.25;100.00;52315.47;2080750;28;20057;-66
2023/04/30 00:39:04;;;;;;;10.55;4.00;;;;;;;-146.25;100.00;52303.31;2080369;28;26044;-66
2023/04/30 00:40:07;;;;;;;8.52;3.78;;;;;;;-146.25;100.00;52287.09;2081207;28;30015;-66
2023/04/30 00:41:09;;;;;;;10.18;3.53;;;;;;;-146.25;100.00;52307.38;2080840;28;30497;-66
2023/04/30 00:42:11;;;;;;;9.13;3.30;;;;;;;-146.25;100.00;52270.88;2080375;28;20048;-66
2023/04/30 00:43:12;;;;;;;12.07;3.90;;;;;;;-146.25;100.00;52274.94;2080784;28;20093;-66
2023/04/30 00:44:14;;;;;;;12.02;3.85;;;;;;;-146.25;100.00;52303.31;2081028;28;25257;-66
2023/04/30 00:45:20;;;;;;;6.50;3.38;;;;;;;-146.25;100.00;52287.09;2080691;28;29254;-66
2023/04/30 00:46:22;;;;;;;11.68;3.25;;;;;;;-146.25;100.00;52262.75;2080666;28;20062;-66
2023/04/30 00:47:24;;;;;;;10.60;3.88;;;;;;;-146.25;100.00;52283.03;2072107;28;27320;-66
2023/04/30 00:48:26;;;;;;;9.25;4.00;;;;;;;-146.25;100.00;52285.06;2081126;28;20046;-66
2023/04/30 00:49:28;;;;;;;6.45;3.17;;;;;;;-146.25;100.00;52307.38;2072002;28;21285;-66
2023/04/30 00:50:34;;;;;;;9.85;3.83;;;;;;;-146.25;100.00;52327.66;2064511;28;26818;-65
2023/04/30 00:51:40;;;;;;;9.18;4.47;;;;;;;-146.25;100.00;52315.47;2079838;28;27382;-66
2023/04/30 00:52:42;;;;;;;10.63;4.38;;;;;;;-146.25;100.00;52287.09;2071744;28;20887;-66
2023/04/30 00:53:45;;;;;;;8.23;3.50;;;;;;;-146.25;100.00;52295.19;2072963;28;20035;-66
2023/04/30 00:54:47;;;;;;;10.50;4.15;;;;;;;-146.25;100.00;52287.09;2080496;28;20165;-66
2023/04/30 00:55:49;;;;;;;12.20;3.67;;;;;;;-146.25;100.00;52291.16;2080743;28;20069;-65
2023/04/30 00:56:51;;;;;;;8.10;4.18;;;;;;;-146.25;100.00;52315.47;2080007;28;24365;-66
2023/04/30 00:57:53;;;;;;;8.55;3.67;;;;;;;-146.25;100.00;52264.78;2064272;28;20039;-65
2023/04/30 00:58:56;;;;;;;8.15;3.53;;;;;;;-146.25;100.00;52258.72;2071933;28;24221;-67
2023/04/30 00:59:58;;;;;;;9.20;3.80;;;;;;;-146.25;100.00;52325.63;2080513;28;20989;-67
2023/04/30 01:01:02;;;;;;;10.77;3.97;;;;;;;-146.25;100.00;52270.88;2080753;28;29397;-67
2023/04/30 01:02:04;;;;;;;13.88;4.50;;;;;;;-146.25;100.00;52291.16;2089151;28;20041;-66
2023/04/30 01:03:06;;;;;;;14.13;4.38;;;;;;;-146.25;100.00;52309.41;2079615;28;33935;-67
2023/04/30 01:04:08;;;;;;;16.67;4.53;;;;;;;-146.25;100.00;52274.94;2080636;28;20042;-67
2023/04/30 01:05:10;;;;;;;11.68;4.07;;;;;;;-146.25;100.00;52291.16;2080438;28;20053;-67
2023/04/30 01:06:11;;;;;;;8.15;4.03;;;;;;;-146.25;100.00;52270.88;2080433;28;25126;-66
2023/04/30 01:07:13;;;;;;;13.23;4.22;;;;;;;-146.25;100.00;52303.31;2079971;28;22519;-67
2023/04/30 01:08:15;;;;;;;9.70;4.05;;;;;;;-146.25;100.00;52299.25;2080289;28;25533;-67
2023/04/30 01:09:17;;;;;;;16.58;3.90;;;;;;;-146.25;100.00;52293.19;2080539;28;29017;-66
2023/04/30 01:10:21;;;;;;;19.30;4.47;;;;;;;-146.25;100.00;52256.69;2081146;28;20807;-66
2023/04/30 01:11:42;;;;;;;13.60;4.07;;;;;;;-146.25;100.00;52283.03;2079696;28;35510;-67
2023/04/30 01:13:00;;;;;;;;;;;;;;;-146.25;100.00;52283.03;2081389;28;20042;-66
2023/04/30 01:14:37;;;;;;;9.65;3.42;;;;;;;-146.25;100.00;52274.94;2080169;28;19925;-66
2023/04/30 01:15:59;;;;;;;10.93;3.75;;;;;;;-146.25;100.00;52311.44;2080611;28;29790;-66
2023/04/30 01:17:32;;;;;;;12.00;3.97;;;;;;;-146.25;100.00;52299.25;2080856;28;20037;-67
2023/04/30 01:18:42;;;;;;;10.65;4.18;;;;;;;-146.25;100.00;52315.47;2080272;28;20049;-67
2023/04/30 01:19:45;;;;;;;11.40;4.22;;;;;;;-146.25;100.00;52327.66;2080449;28;20917;-66
2023/04/30 01:20:57;;;;;;;10.75;3.95;;;;;;;-146.25;100.00;52291.16;2080765;28;36252;-67
2023/04/30 01:22:03;;;;;;;7.32;3.35;;;;;;;-146.25;100.00;52305.34;2088024;28;35250;-67
2023/04/30 01:23:34;;;;;;;12.45;4.35;;;;;;;-146.25;100.00;52311.44;2078274;28;20034;-66
2023/04/30 01:24:59;;;;;;;10.02;3.70;;;;;;;-146.25;100.00;52274.94;2076296;28;26708;-66
2023/04/30 01:26:12;;;;;;;10.52;4.05;;;;;;;-146.25;100.00;52291.16;2075734;28;20042;-67
2023/04/30 01:28:13;;;;;;;10.18;4.00;;;;;;;-146.25;100.00;52287.09;2085045;28;20046;-66
2023/04/30 01:29:18;;;;;;;9.25;4.07;;;;;;;-146.25;100.00;52297.22;2080030;28;20143;-66
2023/04/30 01:30:22;;;;;;;9.60;3.55;;;;;;;-146.25;100.00;52295.19;2080572;28;20053;-64
2023/04/30 01:31:27;;;;;;;9.40;3.67;;;;;;;-146.25;100.00;52315.47;2080777;28;20045;-66
2023/04/30 01:32:28;;;;;;;10.80;3.85;;;;;;;-146.25;100.00;52266.81;2088401;28;21663;-65
2023/04/30 01:33:30;;;;;;;9.13;3.67;;;;;;;-146.25;100.00;52309.41;2087619;28;32367;-66
2023/04/30 01:34:32;;;;;;;10.10;3.63;;;;;;;-146.25;100.00;52323.59;2079862;28;25001;-65
2023/04/30 01:36:17;;;;;;;11.00;3.83;;;;;;;-146.25;100.00;52295.19;2079932;28;28748;-66
2023/04/30 01:37:58;;;;;;;10.60;4.05;;;;;;;-146.25;100.00;52250.59;2079487;28;23792;-66
2023/04/30 01:39:34;;;;;;;11.00;3.55;;;;;;;-146.25;100.00;52274.94;2077257;28;20053;-66
2023/04/30 01:41:08;;;;;;;8.52;3.25;;;;;;;-146.25;100.00;52281.00;2079940;28;30751;-66
2023/04/30 01:42:48;;;;;;;12.65;3.50;;;;;;;-146.25;100.00;52311.44;2080905;28;20792;-66
2023/04/30 01:44:14;;;;;;;5.88;3.05;;;;;;;-146.25;100.00;52305.34;2079875;28;26621;-64
2023/04/30 01:45:47;;;;;;;9.32;3.58;;;;;;;-146.25;100.00;52272.91;2080106;28;20042;-66
2023/04/30 01:47:15;;;;;;;11.48;3.88;;;;;;;-146.25;100.00;52264.78;2070651;28;32891;-66
2023/04/30 01:48:42;;;;;;;12.10;4.30;;;;;;;-146.25;100.00;52323.59;2076059;28;20168;-66
2023/04/30 01:50:27;;;;;;;12.73;4.35;;;;;;;-146.25;100.00;52309.41;2080767;28;22952;-66
2023/04/30 01:51:45;;;;;;;8.95;3.67;;;;;;;-146.25;100.00;52307.38;2071020;28;20888;-66
2023/04/30 01:52:57;;;;;;;11.55;4.00;;;;;;;-146.25;100.00;52317.50;2073712;28;34298;-66
2023/04/30 01:54:15;;;;;;;9.82;3.70;;;;;;;-146.25;100.00;52297.22;2087665;28;29931;-66
2023/04/30 01:55:34;;;;;;;11.77;3.95;;;;;;;-146.25;100.00;52295.19;2084753;28;37317;-66
2023/04/30 01:56:43;;;;;;;15.18;4.28;;;;;;;-146.25;100.00;52309.41;2079754;28;26083;-66
2023/04/30 01:57:59;;;;;;;16.15;4.13;;;;;;;-146.25;100.00;52266.81;2073328;28;20039;-66
2023/04/30 01:59:03;;;;;;;12.98;4.38;;;;;;;-146.25;100.00;52274.94;2071702;28;20140;-66
2023/04/30 02:00:09;;;;;;;11.77;5.50;;;;;;;-146.25;100.00;52309.41;2071938;28;20112;-66
2023/04/30 02:01:31;;;;;;;9.20;4.45;;;;;;;-146.25;100.00;52315.47;2088323;28;20228;-66
2023/04/30 02:02:33;;;;;;;10.35;4.30;;;;;;;-146.25;100.00;52274.94;2080421;28;20046;-66
2023/04/30 02:03:35;;;;;;;15.27;5.25;;;;;;;-146.25;100.00;52299.25;2080269;28;20899;-66
2023/04/30 02:04:36;;;;;;;13.68;5.10;;;;;;;-146.25;100.00;52319.53;2079624;28;20081;-66
2023/04/30 02:05:38;;;;;;;10.63;4.78;;;;;;;-146.25;100.00;52347.91;2080346;28;20908;-66
2023/04/30 02:06:40;;;;;;;15.25;5.03;;;;;;;-146.25;100.00;52317.50;2081074;28;20034;-66
2023/04/30 02:07:46;;;;;;;14.63;5.10;;;;;;;-146.25;100.00;52285.06;2079933;28;31756;-66
2023/04/30 02:08:47;;;;;;;12.57;5.47;;;;;;;-146.25;100.00;52293.19;2079641;28;32112;-66
2023/04/30 02:09:49;;;;;;;12.57;5.60;;;;;;;-146.25;100.00;52319.53;2080127;28;21763;-65
2023/04/30 02:10:51;;;;;;;8.38;4.80;;;;;;;-146.25;100.00;52262.75;2080375;28;27485;-66
2023/04/30 02:11:53;;;;;;;8.68;5.30;;;;;;;-146.25;100.00;52297.22;2081034;28;20084;-66
2023/04/30 02:12:54;;;;;;;12.38;4.88;;;;;;;-146.25;100.00;52307.38;2080035;28;20049;-66
2023/04/30 02:13:56;;;;;;;13.38;4.80;;;;;;;-146.25;100.00;52303.31;2071578;28;22518;-66
2023/04/30 02:14:58;;;;;;;6.88;4.15;;;;;;;-146.25;100.00;52287.09;2072026;28;20210;-66
2023/04/30 02:16:00;;;;;;;11.45;3.80;;;;;;;-146.25;100.00;52264.78;2071941;28;20515;-66
2023/04/30 02:17:01;;;;;;;10.80;4.57;;;;;;;-146.25;100.00;52303.31;2071412;28;20919;-66
2023/04/30 02:18:03;;;;;;;15.50;5.35;;;;;;;-146.25;100.00;52278.97;2071683;28;20911;-66
2023/04/30 02:19:05;;;;;;;8.20;4.88;;;;;;;-146.25;100.00;52274.94;2079908;28;20058;-66
2023/04/30 02:20:08;;;;;;;9.57;4.80;;;;;;;-146.25;100.00;52319.53;2080067;28;20866;-66
2023/04/30 02:21:10;;;;;;;13.23;5.45;;;;;;;-146.25;100.00;52268.84;2079295;28;30991;-66
2023/04/30 02:22:12;;;;;;;7.20;4.57;;;;;;;-146.25;100.00;52287.09;2063383;28;20686;-66
2023/04/30 02:23:14;;;;;;;12.10;4.00;;;;;;;-146.25;100.00;52285.06;2071170;28;29264;-66
2023/04/30 02:24:16;;;;;;;10.48;4.22;;;;;;;-146.25;100.00;52345.91;2080312;28;20049;-66
2023/04/30 02:25:20;;;;;;;13.55;4.38;;;;;;;-146.25;100.00;52293.19;2080448;28;23345;-66
2023/04/30 02:26:25;;;;;;;8.10;4.10;;;;;;;-146.25;100.00;52313.44;2087028;28;35002;-66
2023/04/30 02:27:31;;;;;;;14.38;4.90;;;;;;;-146.25;100.00;52313.44;2080094;28;20045;-66
2023/04/30 02:28:33;;;;;;;10.88;4.82;;;;;;;-146.25;100.00;52295.19;2079689;28;28151;-66
2023/04/30 02:29:35;;;;;;;8.82;4.32;;;;;;;-146.25;100.00;52287.09;2079316;28;34742;-66
2023/04/30 02:30:36;;;;;;;10.18;4.10;;;;;;;-146.25;100.00;52297.22;2079500;28;24660;-66
2023/04/30 02:31:38;;;;;;;11.95;4.85;;;;;;;-146.25;100.00;52331.69;2080127;28;32136;-66
2023/04/30 02:32:44;;;;;;;11.27;4.75;;;;;;;-146.25;100.00;52266.81;2079799;28;20052;-66
2023/04/30 02:33:46;;;;;;;12.43;5.63;;;;;;;-146.25;100.00;52274.94;2079155;28;27884;-66
2023/04/30 02:34:48;;;;;;;12.35;4.97;;;;;;;-146.25;100.00;52325.63;2080132;28;20038;-66
2023/04/30 02:35:54;;;;;;;12.45;5.07;;;;;;;-146.25;100.00;52301.28;2080363;28;23319;-66
2023/04/30 02:36:55;;;;;;;15.48;5.38;;;;;;;-146.25;100.00;52266.81;2080407;28;29352;-66
2023/04/30 02:37:57;;;;;;;12.32;5.15;;;;;;;-146.25;100.00;52276.97;2079746;28;20046;-66
2023/04/30 02:38:59;;;;;;;10.13;4.43;;;;;;;-146.25;100.00;52311.44;2080269;28;20045;-66
2023/04/30 02:40:01;;;;;;;12.07;5.13;;;;;;;-146.25;100.00;52293.19;2088028;28;20034;-65
2023/04/30 02:41:02;;;;;;;10.02;4.82;;;;;;;-146.25;100.00;52283.03;2087248;28;30239;-66
2023/04/30 02:42:05;;;;;;;14.43;5.13;;;;;;;-146.25;100.00;52321.56;2080538;28;28757;-67
2023/04/30 02:43:07;;;;;;;12.38;5.07;;;;;;;-146.25;100.00;52339.81;2079732;28;27505;-67
2023/04/30 02:44:11;;;;;;;9.50;4.72;;;;;;;-146.25;100.00;52291.16;2079624;28;20930;-68
2023/04/30 02:45:15;;;;;;;14.35;5.20;;;;;;;-146.25;100.00;52272.91;2079389;28;22144;-68
2023/04/30 02:46:19;;;;;;;10.38;4.50;;;;;;;-146.25;100.00;52285.06;2071718;28;30799;-66
2023/04/30 02:47:21;;;;;;;8.82;4.95;;;;;;;-146.25;100.00;52317.50;2078797;28;30667;-68
2023/04/30 02:48:23;;;;;;;7.45;4.18;;;;;;;-146.25;100.00;52240.47;2079801;28;27320;-65
2023/04/30 02:49:25;;;;;;;11.23;4.38;;;;;;;-146.25;100.00;52297.22;2079496;28;25658;-68
2023/04/30 02:50:27;;;;;;;8.32;4.40;;;;;;;-146.25;100.00;52283.03;2079846;28;20046;-67
2023/04/30 02:51:30;;;;;;;12.40;4.80;;;;;;;-146.25;100.00;52270.88;2087616;28;31652;-67
2023/04/30 02:52:31;;;;;;;8.50;4.63;;;;;;;-146.25;100.00;52291.16;2078637;28;28884;-68
2023/04/30 02:53:33;;;;;;;10.63;4.57;;;;;;;-146.25;100.00;52356.03;2080214;28;20052;-66
2023/04/30 02:54:35;;;;;;;10.60;4.75;;;;;;;-146.25;100.00;52289.13;2080630;28;20046;-67
2023/04/30 02:55:38;;;;;;;9.38;4.40;;;;;;;-146.25;100.00;52303.31;2079607;28;20172;-66
2023/04/30 02:56:40;;;;;;;11.52;5.03;;;;;;;-146.25;100.00;52287.09;2079281;28;32886;-67
2023/04/30 02:57:42;;;;;;;9.77;4.72;;;;;;;-146.25;100.00;52301.28;2078849;28;31950;-66
2023/04/30 02:58:43;;;;;;;9.38;4.88;;;;;;;-146.25;100.00;52323.59;2071499;28;27520;-68
2023/04/30 02:59:45;;;;;;;9.55;4.28;;;;;;;-146.25;100.00;52295.19;2071795;28;20844;-66
2023/04/30 03:00:48;;;;;;;11.90;4.80;;;;;;;-146.25;100.00;52266.81;2071524;28;20828;-66
2023/04/30 03:01:49;;;;;;;15.88;5.70;;;;;;;-146.25;100.00;52317.50;2079870;28;20784;-66
2023/04/30 03:02:54;;;;;;;10.68;5.47;;;;;;;-146.25;100.00;52305.34;2079612;28;20160;-66
2023/04/30 03:03:58;;;;;;;13.05;5.47;;;;;;;-146.25;100.00;52270.88;2079542;28;20121;-66
2023/04/30 03:05:00;;;;;;;13.20;5.65;;;;;;;-146.25;100.00;52287.09;2080393;28;20251;-66
2023/04/30 03:06:02;;;;;;;18.58;6.20;;;;;;;-146.25;100.00;52297.22;2079854;28;32737;-66
2023/04/30 03:07:07;;;;;;;13.35;5.63;;;;;;;-146.25;100.00;52309.41;2079667;28;20962;-66
2023/04/30 03:08:09;;;;;;;10.48;4.32;;;;;;;-146.25;100.00;52289.13;2079764;28;20045;-67
2023/04/30 03:09:11;;;;;;;16.73;5.30;;;;;;;-146.25;100.00;52321.56;2080195;28;24852;-67
2023/04/30 03:10:12;;;;;;;10.95;5.53;;;;;;;-146.25;100.00;52313.44;2079273;28;20053;-68
2023/04/30 03:11:14;;;;;;;12.07;5.30;;;;;;;-146.25;100.00;52321.56;2079506;28;20911;-67
2023/04/30 03:12:16;;;;;;;12.95;6.00;;;;;;;-146.25;100.00;52297.22;2087907;28;20188;-67
2023/04/30 03:13:18;;;;;;;16.90;5.78;;;;;;;-146.25;100.00;52270.88;2078851;28;26735;-66
2023/04/30 03:14:19;;;;;;;13.48;6.00;;;;;;;-146.25;100.00;52329.66;2079323;28;28622;-66
2023/04/30 03:15:21;;;;;;;13.23;6.07;;;;;;;-146.25;100.00;52289.13;2079330;28;20067;-66
2023/04/30 03:16:23;;;;;;;13.27;6.10;;;;;;;-146.25;100.00;52281.00;2079228;28;27567;-65
2023/04/30 03:17:27;;;;;;;17.05;6.25;;;;;;;-146.25;100.00;52289.13;2080386;28;20034;-66
2023/04/30 03:18:29;;;;;;;12.30;6.13;;;;;;;-146.25;100.00;52315.47;2080209;28;20065;-66
2023/04/30 03:19:31;;;;;;;17.35;6.10;;;;;;;-146.25;100.00;52248.56;2087433;28;29639;-66
2023/04/30 03:20:33;;;;;;;9.75;5.15;;;;;;;-146.25;100.00;52315.47;2087497;28;24105;-66
2023/04/30 03:21:35;;;;;;;12.85;5.13;;;;;;;-146.25;100.00;52297.22;2079374;28;20050;-66
2023/04/30 03:22:36;;;;;;;9.90;5.15;;;;;;;-146.25;100.00;52297.22;2078895;28;28009;-66
2023/04/30 03:23:38;;;;;;;8.70;4.50;;;;;;;-146.25;100.00;52307.38;2080212;28;26451;-66
2023/04/30 03:24:45;;;;;;;10.82;4.97;;;;;;;-146.25;100.00;52315.47;2087527;28;20045;-66
2023/04/30 03:25:46;;;;;;;11.38;4.38;;;;;;;-146.25;100.00;52319.53;2079212;28;26629;-66
2023/04/30 03:26:48;;;;;;;14.55;5.47;;;;;;;-146.25;100.00;52295.19;2080361;28;21029;-66
2023/04/30 03:27:50;;;;;;;9.13;4.65;;;;;;;-146.25;100.00;52321.56;2079813;28;32219;-66
2023/04/30 03:28:53;;;;;;;12.15;5.40;;;;;;;-146.25;100.00;52303.31;2080242;28;20057;-66
2023/04/30 03:29:55;;;;;;;14.07;5.25;;;;;;;-146.25;100.00;52272.91;2079916;28;27345;-66
2023/04/30 03:31:04;;;;;;;12.02;6.10;;;;;;;-146.25;100.00;52281.00;2079290;28;20081;-66
2023/04/30 03:32:05;;;;;;;9.55;6.43;;;;;;;-146.25;100.00;52331.69;2071959;28;20038;-66
2023/04/30 03:33:07;;;;;;;16.17;6.20;;;;;;;-146.25;100.00;52283.03;2078901;28;21391;-66
2023/04/30 03:34:09;;;;;;;7.55;4.82;;;;;;;-146.25;100.00;52309.41;2080481;28;20245;-66
2023/04/30 03:35:11;;;;;;;13.18;5.78;;;;;;;-146.25;100.00;52321.56;2079446;28;34642;-66
2023/04/30 03:36:13;;;;;;;14.52;5.82;;;;;;;-146.25;100.00;52309.41;2080377;28;20049;-66
2023/04/30 03:37:14;;;;;;;9.75;5.05;;;;;;;-146.25;100.00;52323.59;2079403;28;20102;-66
2023/04/30 03:38:18;;;;;;;13.52;6.03;;;;;;;-146.25;100.00;52272.91;2071530;28;20042;-66
2023/04/30 03:39:20;;;;;;;13.15;6.18;;;;;;;-146.25;100.00;52343.88;2079281;28;30229;-66
2023/04/30 03:40:22;;;;;;;16.10;5.80;;;;;;;-146.25;100.00;52309.41;2079742;28;26404;-66
2023/04/30 03:41:26;;;;;;;10.90;5.28;;;;;;;-146.25;100.00;52317.50;2080103;28;20896;-66
2023/04/30 03:42:30;;;;;;;16.83;5.75;;;;;;;-146.25;100.00;52315.47;2079085;28;21001;-66
2023/04/30 03:43:32;;;;;;;9.88;5.82;;;;;;;-146.25;100.00;52317.50;2079237;28;27550;-66
2023/04/30 03:44:37;;;;;;;13.30;5.60;;;;;;;-146.25;100.00;52299.25;2079535;28;20104;-66
2023/04/30 03:45:39;;;;;;;17.15;6.50;;;;;;;-146.25;100.00;52287.09;2079508;28;20042;-66
2023/04/30 03:46:44;;;;;;;17.25;6.07;;;;;;;-146.25;100.00;52333.72;2079238;28;20046;-65
2023/04/30 03:47:49;;;;;;;13.70;6.57;;;;;;;-146.25;100.00;52299.25;2071763;28;20172;-67
2023/04/30 03:48:51;;;;;;;14.52;6.47;;;;;;;-146.25;100.00;52333.72;2079841;28;20107;-66
2023/04/30 03:49:54;;;;;;;13.43;5.75;;;;;;;-146.25;100.00;52295.19;2079479;28;20049;-66
2023/04/30 03:50:57;;;;;;;12.02;6.10;;;;;;;-146.25;100.00;52285.06;2071078;28;20172;-66
2023/04/30 03:52:02;;;;;;;16.70;6.65;;;;;;;-146.25;100.00;52315.47;2079573;28;20042;-66
2023/04/30 03:53:04;;;;;;;14.32;6.32;;;;;;;-146.25;100.00;52305.34;2079927;28;20152;-66
2023/04/30 03:54:06;;;;;;;11.45;6.20;;;;;;;-146.25;100.00;52368.19;2080336;28;20042;-66
2023/04/30 03:55:09;;;;;;;10.82;5.80;;;;;;;-146.25;100.00;52268.84;2081202;28;21068;-67
2023/04/30 03:56:13;;;;;;;9.38;5.40;;;;;;;-146.25;100.00;52281.00;2081000;28;20181;-66
2023/04/30 03:57:16;;;;;;;10.82;6.38;;;;;;;-146.25;100.00;52307.38;2080720;28;20404;-66
2023/04/30 03:58:21;;;;;;;10.13;5.13;;;;;;;-146.25;100.00;52295.19;2080366;28;22904;-66
2023/04/30 03:59:23;;;;;;;15.18;5.65;;;;;;;-146.25;100.00;52289.13;2073101;28;20109;-66
2023/04/30 04:00:25;;;;;;;9.35;5.38;;;;;;;-146.25;100.00;52311.44;2080512;28;30221;-66
2023/04/30 04:01:28;;;;;;;14.55;5.60;;;;;;;-146.25;100.00;52301.28;2072393;28;20047;-66
2023/04/30 04:02:33;;;;;;;13.20;5.00;;;;;;;-146.25;100.00;52295.19;2072671;28;20057;-67
2023/04/30 04:03:36;;;;;;;17.38;5.95;;;;;;;-146.25;100.00;52321.56;2080697;28;20916;-66
2023/04/30 04:04:38;;;;;;;14.68;6.97;;;;;;;-146.25;100.00;52309.41;2081365;28;20864;-66
2023/04/30 04:05:40;;;;;;;19.95;6.55;;;;;;;-146.25;100.00;52331.69;2081470;28;25863;-66
2023/04/30 04:06:42;;;;;;;14.25;7.20;;;;;;;-146.25;100.00;52281.00;2081562;28;20961;-66
2023/04/30 04:07:44;;;;;;;18.50;6.45;;;;;;;-146.25;100.00;52272.91;2081465;28;20959;-66
2023/04/30 04:08:49;;;;;;;11.88;6.03;;;;;;;-146.25;100.00;52307.38;2080865;28;20042;-66
2023/04/30 04:10:12;;;;;;;13.88;6.70;;;;;;;-146.25;100.00;52297.22;2080723;28;20073;-67
2023/04/30 04:11:20;;;;;;;13.90;6.72;;;;;;;-146.25;100.00;52345.91;2075984;28;23535;-66
2023/04/30 04:12:22;;;;;;;14.85;6.63;;;;;;;-146.25;100.00;52295.19;2080883;28;28272;-67
2023/04/30 04:13:27;;;;;;;14.63;6.90;;;;;;;-146.25;100.00;52323.59;2072942;28;20451;-66
2023/04/30 04:14:31;;;;;;;15.30;7.40;;;;;;;-146.25;100.00;52299.25;2080715;28;20044;-66
2023/04/30 04:15:33;;;;;;;18.40;7.95;;;;;;;-146.25;100.00;52313.44;2080659;28;20059;-66
2023/04/30 04:16:36;;;;;;;16.88;7.50;;;;;;;-146.25;100.00;52307.38;2080584;28;20921;-66
2023/04/30 04:17:38;;;;;;;13.75;7.38;;;;;;;-146.25;100.00;52291.16;2072453;28;20108;-66
2023/04/30 04:18:40;;;;;;;12.30;7.40;;;;;;;-146.25;100.00;52305.34;2080701;28;20033;-66
2023/04/30 04:19:42;;;;;;;14.15;6.45;;;;;;;-146.25;100.00;52323.59;2072520;28;20054;-66
2023/04/30 04:20:43;;;;;;;12.05;6.80;;;;;;;-146.25;100.00;52337.78;2081076;28;20038;-66
2023/04/30 04:21:45;;;;;;;13.15;7.13;;;;;;;-146.25;100.00;52337.78;2088276;28;25139;-66
2023/04/30 04:22:49;;;;;;;10.85;6.50;;;;;;;-146.25;100.00;52264.78;2088686;28;20034;-66
2023/04/30 04:23:51;;;;;;;17.50;7.32;;;;;;;-146.25;100.00;52323.59;2088458;28;25102;-66
2023/04/30 04:24:54;;;;;;;9.40;5.82;;;;;;;-146.25;100.00;52307.38;2080000;28;20910;-66
2023/04/30 04:25:57;;;;;;;10.02;6.10;;;;;;;-146.25;100.00;52311.44;2080562;28;20045;-66
2023/04/30 04:27:01;;;;;;;15.93;7.78;;;;;;;-146.25;100.00;52317.50;2079988;28;26345;-66
2023/04/30 04:28:03;;;;;;;15.75;6.93;;;;;;;-146.25;100.00;52295.19;2080893;28;20787;-66
2023/04/30 04:29:05;;;;;;;12.35;6.63;;;;;;;-146.25;100.00;52281.00;2080489;28;20046;-66
2023/04/30 04:30:07;;;;;;;11.80;6.88;;;;;;;-146.25;100.00;52313.44;2080121;28;26849;-66
2023/04/30 04:31:10;;;;;;;14.55;7.20;;;;;;;-146.25;100.00;52339.81;2080430;28;20049;-66
2023/04/30 04:32:13;;;;;;;14.70;6.85;;;;;;;-146.25;100.00;52307.38;2079980;28;29455;-66
2023/04/30 04:33:18;;;;;;;14.38;6.07;;;;;;;-146.25;100.00;52295.19;2080542;28;20053;-65
2023/04/30 04:34:20;;;;;;;9.30;5.53;;;;;;;-146.25;100.00;52293.19;2080455;28;20073;-66
2023/04/30 04:35:22;;;;;;;8.55;5.05;;;;;;;-146.25;100.00;52299.25;2080359;28;23901;-66
2023/04/30 04:36:26;;;;;;;13.43;4.85;;;;;;;-146.25;100.00;52321.56;2081312;28;20045;-66
2023/04/30 04:37:31;;;;;;;8.63;4.85;;;;;;;-146.25;100.00;52291.16;2080784;28;20045;-66
2023/04/30 04:38:35;;;;;;;6.78;3.92;;;;;;;-146.25;100.00;52343.88;2080233;28;20038;-66
2023/04/30 04:39:38;;;;;;;7.07;3.83;;;;;;;-146.25;100.00;52376.31;2080522;28;20098;-66
2023/04/30 04:40:41;;;;;;;7.82;3.58;;;;;;;-146.25;100.00;52313.44;2080470;28;20176;-66
2023/04/30 04:41:42;;;;;;;6.85;2.78;;;;;;;-146.25;100.00;52295.19;2071513;28;29381;-66
2023/04/30 04:42:44;;;;;;;6.07;2.47;;;;;;;-146.25;100.00;52295.19;2080765;28;20041;-66
2023/04/30 04:43:46;;;;;;;3.47;2.10;;;;;;;-146.25;100.00;52303.31;2081475;28;20084;-66
2023/04/30 04:44:48;;;;;;;4.65;1.90;;;;;;;-146.25;100.00;52301.28;2080895;28;20038;-66
2023/04/30 04:45:51;;;;;;;2.65;1.40;;;;;;;-146.25;100.00;52329.66;2080553;28;20065;-66
2023/04/30 04:46:55;;;;;;;6.03;1.80;;;;;;;-146.25;100.00;52321.56;2072602;28;20100;-66
2023/04/30 04:47:57;;;;;;;4.13;1.60;;;;;;;-146.25;100.00;52360.09;2080145;28;29225;-66
2023/04/30 04:48:59;;;;;;;7.95;1.60;;;;;;;-146.25;100.00;52311.44;2080680;28;20050;-66
2023/04/30 04:50:03;;;;;;;3.03;1.50;;;;;;;-146.25;96.28;52343.88;2080157;28;27546;-66
2023/04/30 04:51:05;;;;;;;5.63;1.30;;;;;;;-146.25;95.62;52287.09;2081263;28;20938;-66
2023/04/30 04:52:07;;;;;;;3.88;1.50;;;;;;;-146.25;90.83;52319.53;2080340;28;20821;-66
2023/04/30 04:53:09;;;;;;;5.05;1.50;;;;;;;-146.25;88.71;52343.88;2080451;28;20038;-66
2023/04/30 04:54:11;;;;;;;2.95;1.38;;;;;;;-146.25;80.52;52323.59;2081048;28;20119;-66